createdAt,value
2023-11-12T00:08:38.518Z,99.99
2023-11-12T00:18:38.431Z,99.99
2023-11-12T00:28:38.170Z,99.99
2023-11-12T00:38:38.145Z,99.99
2023-11-12T00:48:37.923Z,99.99
2023-11-12T00:58:37.887Z,99.99
2023-11-12T01:08:37.796Z,99.99
2023-11-12T01:18:37.700Z,99.99
2023-11-12T01:28:37.569Z,99.99
2023-11-12T01:38:37.447Z,99.99
2023-11-12T01:48:37.459Z,99.99
2023-11-12T01:58:37.263Z,99.99
2023-11-12T02:08:37.146Z,99.99
2023-11-12T02:18:37.047Z,99.99
2023-11-12T02:28:36.920Z,99.99
2023-11-12T02:38:36.796Z,99.99
2023-11-12T02:48:36.726Z,99.99
2023-11-12T02:58:36.592Z,99.99
2023-11-12T03:08:36.521Z,99.99
2023-11-12T03:18:36.476Z,99.99
2023-11-12T03:28:36.300Z,99.99
2023-11-12T03:38:36.154Z,99.99
2023-11-12T03:48:36.435Z,99.99
2023-11-12T03:58:35.942Z,99.99
2023-11-12T04:08:35.902Z,99.99
2023-11-12T04:18:36.076Z,99.99
2023-11-12T04:28:35.678Z,99.99
2023-11-12T04:38:35.569Z,99.99
2023-11-12T04:48:35.492Z,99.99
2023-11-12T04:58:35.336Z,99.99
2023-11-12T05:08:35.222Z,99.99
2023-11-12T05:18:35.227Z,99.99
2023-11-12T05:28:35.003Z,99.99
2023-11-12T05:38:34.899Z,99.99
2023-11-12T05:48:34.856Z,99.99
2023-11-12T05:58:34.714Z,99.99
2023-11-12T06:08:34.627Z,99.99
2023-11-12T06:18:34.524Z,99.99
2023-11-12T06:28:34.404Z,99.99
2023-11-12T06:38:34.343Z,99.99
2023-11-12T06:48:34.455Z,99.99
2023-11-12T06:58:34.083Z,99.99
2023-11-12T07:08:34.091Z,99.99
2023-11-12T07:18:45.151Z,99.99
2023-11-12T07:28:33.799Z,99.99
2023-11-12T07:38:33.676Z,99.99
2023-11-12T07:48:33.737Z,99.99
2023-11-12T07:58:33.576Z,99.99
2023-11-12T08:08:33.403Z,99.99
2023-11-12T08:18:33.327Z,99.99
2023-11-12T08:28:33.175Z,99.99
2023-11-12T08:38:33.446Z,99.86
2023-11-12T08:48:33.250Z,98.83
2023-11-12T08:58:32.850Z,99.65
2023-11-12T09:08:32.922Z,98.99
2023-11-12T09:18:32.717Z,97.19
2023-11-12T09:28:32.571Z,95.36
2023-11-12T09:38:32.465Z,93.05
2023-11-12T09:48:32.743Z,93.61
2023-11-12T09:58:32.308Z,91.80
2023-11-12T10:08:32.164Z,94.48
2023-11-12T10:18:32.055Z,95.40
2023-11-12T10:28:31.939Z,92.38
2023-11-12T10:38:31.803Z,93.51
2023-11-12T10:48:31.722Z,91.97
2023-11-12T10:58:31.771Z,90.89
2023-11-12T11:08:31.569Z,92.19
2023-11-12T11:18:31.477Z,93.71
2023-11-12T11:28:31.359Z,96.73
2023-11-12T11:38:31.433Z,95.67
2023-11-12T11:48:31.158Z,95.97
2023-11-12T11:58:30.934Z,96.69
2023-11-12T12:08:30.870Z,96.23
2023-11-12T12:18:30.852Z,94.59
2023-11-12T12:28:30.727Z,95.72
2023-11-12T12:38:30.577Z,92.25
2023-11-12T12:48:30.510Z,90.20
2023-11-12T12:58:30.729Z,89.03
2023-11-12T13:08:30.381Z,87.43
2023-11-12T13:18:30.264Z,87.67
2023-11-12T13:28:30.405Z,84.84
2023-11-12T13:38:32.191Z,87.40
2023-11-12T13:48:29.892Z,89.66
2023-11-12T13:58:29.777Z,90.42
2023-11-12T14:08:30.143Z,90.63
2023-11-12T14:18:29.533Z,91.25
2023-11-12T14:28:29.430Z,91.35
2023-11-12T14:38:29.231Z,91.66
2023-11-12T14:48:29.246Z,92.52
2023-11-12T14:58:29.082Z,93.14
2023-11-12T15:08:29.002Z,94.17
2023-11-12T15:18:36.814Z,95.03
2023-11-12T15:28:28.797Z,95.75
2023-11-12T15:38:29.936Z,96.11
2023-11-12T15:48:28.537Z,96.93
2023-11-12T15:58:28.642Z,97.34
2023-11-12T16:08:28.389Z,97.96
2023-11-12T16:18:28.217Z,98.47
2023-11-12T16:28:28.579Z,99.09
2023-11-12T16:38:28.013Z,99.09
2023-11-12T16:48:27.894Z,98.58
2023-11-12T16:58:27.746Z,97.75
2023-11-12T17:08:27.683Z,97.34
2023-11-12T17:18:35.323Z,97.03
2023-11-12T17:28:35.586Z,97.24
2023-11-12T17:38:35.841Z,97.65
2023-11-12T17:48:27.329Z,96.62
2023-11-12T17:58:27.130Z,96.93
2023-11-12T18:08:27.343Z,91.42
2023-11-12T18:18:26.924Z,97.53
2023-11-12T18:28:27.139Z,99.99
2023-11-12T18:38:26.711Z,99.99
2023-11-12T18:48:35.609Z,99.99
2023-11-12T18:58:26.604Z,99.99
2023-11-12T19:08:26.821Z,99.99
2023-11-12T19:18:26.898Z,99.99
2023-11-12T19:28:26.651Z,99.99
2023-11-12T19:38:26.341Z,99.94
2023-11-12T19:48:26.667Z,99.99
2023-11-12T19:58:26.458Z,99.99
2023-11-12T20:08:25.880Z,99.99
2023-11-12T20:18:25.673Z,99.99
2023-11-12T20:28:25.739Z,99.99
2023-11-12T20:38:25.498Z,99.99
2023-11-12T20:48:25.444Z,99.99
2023-11-12T20:58:25.400Z,99.99
2023-11-12T21:08:25.239Z,99.99
2023-11-12T21:18:25.124Z,99.99
2023-11-12T21:28:24.998Z,99.99
2023-11-12T21:38:24.855Z,99.99
2023-11-12T21:48:24.762Z,99.99
2023-11-12T21:58:24.649Z,99.99
2023-11-12T22:08:24.648Z,99.99
2023-11-12T22:18:24.467Z,99.99
2023-11-12T22:28:24.397Z,99.99
2023-11-12T22:38:24.244Z,99.99
2023-11-12T22:48:24.226Z,99.99
2023-11-12T22:58:32.005Z,99.99
2023-11-12T23:08:23.975Z,99.99
2023-11-12T23:18:23.798Z,99.99
2023-11-12T23:28:23.779Z,99.99
2023-11-12T23:38:23.610Z,99.99
2023-11-12T23:48:23.515Z,99.99
2023-11-12T23:58:23.470Z,99.87
